Time;durP1;ratioP1;P1;durP2;ratioP2;P2;SDS_P1;SDS_P2;PMS_P1;PMS_P2;Temp;Humidity;BMP_temperature;BMP_pressure;BME280_temperature;BME280_humidity;BME280_pressure;Samples;Min_cycle;Max_cycle;Signal;HPM_P1;HPM_P2
2022/01/04 00:00:39;;;;;;;15.65;6.00;;;;;;;4.74;88.62;99624.48;1751700;79;21360;-71
2022/01/04 00:03:06;;;;;;;10.65;5.67;;;;;;;4.75;88.62;99624.90;1742734;79;20961;-71
2022/01/04 00:05:32;;;;;;;;;;;;;;;4.73;88.62;99618.52;1776667;79;20933;-72
2022/01/04 00:07:59;;;;;;;17.00;6.03;;;;;;;4.73;88.65;99611.27;1813912;77;25483;-72
2022/01/04 00:10:28;;;;;;;9.43;5.20;;;;;;;4.72;88.64;99600.60;1825737;77;20928;-72
2022/01/04 00:15:41;;;;;;;15.58;5.05;;;;;;;4.71;88.66;99602.31;1784383;79;20856;-72
2022/01/04 00:18:05;;;;;;;9.93;4.72;;;;;;;4.70;88.63;99594.21;1833591;77;20885;-72
2022/01/04 00:20:31;;;;;;;8.13;4.73;;;;;;;4.72;88.63;99598.04;1827150;77;20888;-71
2022/01/04 00:22:57;;;;;;;14.37;5.03;;;;;;;4.71;88.63;99597.19;1811936;77;21214;-72
2022/01/04 00:25:23;;;;;;;9.77;4.57;;;;;;;4.70;88.62;99595.49;1758433;81;20870;-72
2022/01/04 00:27:49;;;;;;;14.53;5.23;;;;;;;4.69;88.60;99602.75;1758769;79;20868;-72
2022/01/04 00:30:15;;;;;;;44.73;41.17;;;;;;;4.69;88.67;99594.22;1786458;79;21725;-72
2022/01/04 00:32:41;;;;;;;12.93;4.25;;;;;;;4.70;88.64;99590.37;1769358;79;20868;-72
2022/01/04 00:35:08;;;;;;;9.68;3.80;;;;;;;4.70;88.70;99585.68;1757118;79;21425;-72
2022/01/04 00:37:33;;;;;;;;;;;;;;;4.70;88.69;99585.68;1758908;79;20953;-72
2022/01/04 00:39:59;;;;;;;7.97;3.95;;;;;;;4.70;88.70;99586.53;1762705;79;20160;-71
2022/01/04 00:42:25;;;;;;;14.77;4.63;;;;;;;4.69;88.66;99583.98;1768327;79;20923;-72
2022/01/04 00:44:52;;;;;;;50.85;34.85;;;;;;;4.68;88.68;99583.59;1751056;79;21099;-72
2022/01/04 00:47:25;;;;;;;13.28;4.62;;;;;;;4.67;88.66;99584.45;1780771;79;20912;-72
2022/01/04 00:49:46;;;;;;;8.90;4.30;;;;;;;4.65;88.67;99586.59;1766081;79;20909;-72
2022/01/04 00:52:16;;;;;;;14.40;4.25;;;;;;;4.67;88.69;99581.90;1783234;79;20933;-71
2022/01/04 00:54:40;;;;;;;11.55;4.12;;;;;;;4.65;88.67;99570.39;1767512;79;21119;-72
2022/01/04 00:57:06;;;;;;;11.80;4.03;;;;;;;4.65;88.67;99570.39;1768957;79;20970;-72
2022/01/04 00:59:32;;;;;;;7.30;3.92;;;;;;;4.65;88.68;99567.40;1772485;79;20900;-72
2022/01/04 01:01:58;;;;;;;12.87;4.53;;;;;;;4.67;88.72;99560.98;1752536;79;21540;-72
2022/01/04 01:04:24;;;;;;;14.07;4.63;;;;;;;4.69;88.75;99563.50;1796587;79;20902;-72
2022/01/04 01:06:50;;;;;;;10.67;4.53;;;;;;;4.70;88.77;99559.64;1770053;79;21158;-72
2022/01/04 01:09:16;;;;;;;9.93;4.33;;;;;;;4.73;88.76;99557.48;1783144;79;20992;-72
2022/01/04 01:11:42;;;;;;;10.67;4.20;;;;;;;4.73;88.73;99542.97;1800443;78;20823;-71
2022/01/04 01:14:08;;;;;;;13.47;3.80;;;;;;;4.75;88.74;99550.64;1740360;79;21029;-71
2022/01/04 01:16:34;;;;;;;11.40;4.10;;;;;;;4.76;88.73;99540.81;1782325;79;20925;-71
2022/01/04 01:19:00;;;;;;;12.73;4.03;;;;;;;4.75;88.71;99534.00;1773735;80;20886;-72
2022/01/04 01:21:26;;;;;;;6.80;3.50;;;;;;;4.75;88.71;99536.55;1818640;77;20931;-71
2022/01/04 01:23:52;;;;;;;7.42;3.12;;;;;;;4.76;88.71;99530.56;1811692;77;20885;-71
2022/01/04 01:26:18;;;;;;;9.18;3.75;;;;;;;4.75;88.66;99530.16;1814694;77;20921;-72
2022/01/04 01:28:45;;;;;;;14.10;4.53;;;;;;;4.73;88.66;99526.33;1813012;77;20873;-71
2022/01/04 01:31:12;;;;;;;12.93;3.90;;;;;;;4.72;88.67;99526.34;1820154;77;25066;-71
2022/01/04 01:33:38;;;;;;;9.75;4.17;;;;;;;4.71;88.67;99535.73;1806853;77;20867;-71
2022/01/04 01:36:05;;;;;;;12.35;4.67;;;;;;;4.70;88.64;99526.78;1777016;80;20897;-72
2022/01/04 01:38:31;;;;;;;8.20;3.45;;;;;;;4.65;88.63;99526.44;1818228;77;20870;-72
2022/01/04 01:40:57;;;;;;;9.60;3.67;;;;;;;4.65;88.69;99516.19;1822924;77;20870;-72
2022/01/04 01:43:24;;;;;;;8.58;4.22;;;;;;;4.64;88.68;99513.21;1787977;77;20917;-72
2022/01/04 01:45:51;;;;;;;9.25;3.62;;;;;;;4.64;88.73;99509.80;1806307;77;20889;-72
2022/01/04 01:48:16;;;;;;;;;;;;;;;4.62;88.69;99513.66;1765151;79;20931;-72
2022/01/04 01:50:43;;;;;;;7.90;4.12;;;;;;;4.61;88.70;99512.39;1831709;77;20137;-71
2022/01/04 01:53:09;;;;;;;9.25;3.90;;;;;;;4.60;88.64;99517.09;1826717;77;20882;-71
2022/01/04 01:55:35;;;;;;;10.32;4.08;;;;;;;4.57;88.69;99504.33;1811606;77;20878;-71
2022/01/04 01:58:01;;;;;;;9.90;3.80;;;;;;;4.57;88.72;99512.86;1811437;77;20822;-72
2022/01/04 02:00:29;;;;;;;7.60;4.47;;;;;;;4.54;88.69;99505.20;1831134;77;20877;-71
2022/01/04 02:02:57;;;;;;;11.53;4.20;;;;;;;4.53;88.75;99502.66;1799604;77;21419;-72
2022/01/04 02:05:23;;;;;;;11.43;4.55;;;;;;;4.50;88.68;99513.77;1843132;77;20917;-72
2022/01/04 02:07:51;;;;;;;10.00;4.30;;;;;;;4.49;88.69;99513.35;1814759;77;20955;-72
2022/01/04 02:10:17;;;;;;;9.88;4.80;;;;;;;4.48;88.67;99515.92;1812702;77;20936;-72
2022/01/04 02:12:47;;;;;;;11.77;3.93;;;;;;;4.45;88.64;99518.52;1795122;77;20881;-71
2022/01/04 02:15:18;;;;;;;9.00;4.45;;;;;;;4.42;88.67;99518.11;1784404;78;20918;-71
2022/01/04 02:17:44;;;;;;;10.20;3.95;;;;;;;4.41;88.69;99518.97;1813091;77;20920;-71
2022/01/04 02:20:12;;;;;;;7.72;3.83;;;;;;;4.41;88.71;99504.05;1801471;78;22086;-72
2022/01/04 02:22:39;;;;;;;12.55;4.25;;;;;;;4.41;88.77;99508.73;1775388;79;21286;-71
2022/01/04 02:25:06;;;;;;;9.68;4.00;;;;;;;4.39;88.73;99501.50;1776043;79;20902;-72
2022/01/04 02:27:35;;;;;;;9.55;4.15;;;;;;;4.39;88.71;99498.09;1775780;79;20905;-72
2022/01/04 02:30:03;;;;;;;7.28;3.67;;;;;;;4.36;88.69;99502.80;1747464;79;20901;-72
2022/01/04 02:32:29;;;;;;;8.28;3.70;;;;;;;4.36;88.73;99495.12;1766205;79;22051;-71
2022/01/04 02:34:55;;;;;;;6.15;3.98;;;;;;;4.35;88.78;99495.98;1767819;79;20932;-71
2022/01/04 02:37:23;;;;;;;9.30;3.63;;;;;;;4.35;88.77;99483.19;1767325;79;21603;-71
2022/01/04 02:39:50;;;;;;;9.63;4.08;;;;;;;4.36;88.81;99481.05;1783712;79;20885;-71
2022/01/04 02:42:16;;;;;;;;;;;;;;;4.37;88.86;99476.78;1773141;79;20890;-71
2022/01/04 02:44:43;;;;;;;8.08;3.60;;;;;;;4.39;88.92;99474.63;1800557;77;20164;-71
2022/01/04 02:47:10;;;;;;;11.20;3.80;;;;;;;4.40;88.91;99476.33;1690620;77;196343;-71
2022/01/04 02:49:36;;;;;;;9.48;3.62;;;;;;;4.42;88.91;99470.77;1585504;88;20986;-72
2022/01/04 02:52:03;;;;;;;4.27;2.70;;;;;;;4.43;88.92;99466.06;1587221;86;20903;-71
2022/01/04 02:54:28;;;;;;;;;;;;;;;4.43;88.88;99454.54;1621783;87;21689;-71
2022/01/04 02:56:55;;;;;;;5.72;3.20;;;;;;;4.43;88.89;99457.10;1627537;86;20197;-71
2022/01/04 02:59:21;;;;;;;7.08;3.33;;;;;;;4.44;88.86;99459.23;1653557;86;20982;-71
2022/01/04 03:01:47;;;;;;;6.25;3.35;;;;;;;4.41;88.82;99456.27;1663888;86;20975;-71
2022/01/04 03:04:13;;;;;;;5.37;3.00;;;;;;;4.40;88.78;99453.30;1662849;85;20891;-71
2022/01/04 03:06:39;;;;;;;7.17;3.70;;;;;;;4.39;88.77;99452.02;1611164;86;20998;-71
2022/01/04 03:09:06;;;;;;;295.67;34.55;;;;;;;4.37;88.78;99449.48;1663797;86;20902;-71
2022/01/04 03:11:34;;;;;;;8.78;3.40;;;;;;;4.36;88.77;99451.63;1663604;86;20931;-71
2022/01/04 03:14:01;;;;;;;5.05;2.92;;;;;;;4.35;88.76;99452.92;1648831;86;20979;-71
2022/01/04 03:16:27;;;;;;;6.80;3.02;;;;;;;4.36;88.87;99441.81;1634872;86;20944;-71
2022/01/04 03:19:10;;;;;;;10.23;4.40;;;;;;;4.38;88.92;99438.38;1641822;86;20915;-71
2022/01/04 03:21:43;;;;;;;8.90;3.22;;;;;;;4.41;88.96;99433.66;1587165;88;20974;-72
2022/01/04 03:24:11;;;;;;;9.80;2.77;;;;;;;4.44;89.01;99438.32;1635353;86;21522;-71
2022/01/04 03:26:38;;;;;;;5.78;3.22;;;;;;;4.47;89.02;99434.45;1650500;86;20927;-71
2022/01/04 03:29:07;;;;;;;7.95;3.52;;;;;;;4.50;88.99;99436.13;1636463;86;20946;-71
2022/01/04 03:31:33;;;;;;;9.85;4.45;;;;;;;4.51;89.01;99423.32;1656979;86;20942;-72
2022/01/04 03:34:01;;;;;;;9.25;3.83;;;;;;;4.53;88.95;99420.31;1645788;86;21010;-71
2022/01/04 03:36:27;;;;;;;6.87;4.03;;;;;;;4.54;88.95;99415.61;1663722;85;20974;-72
2022/01/04 03:38:55;;;;;;;9.58;4.10;;;;;;;4.55;88.96;99411.34;1640218;86;20903;-72
2022/01/04 03:41:24;;;;;;;8.08;4.05;;;;;;;4.55;88.93;99407.06;1629841;86;20991;-71
2022/01/04 03:43:51;;;;;;;11.88;4.33;;;;;;;4.54;88.95;99406.64;1658646;85;21002;-72
2022/01/04 03:46:17;;;;;;;;;;;;;;;4.56;88.96;99406.63;1646765;86;21551;-72
2022/01/04 03:48:43;;;;;;;9.63;3.95;;;;;;;4.54;88.96;99396.41;1657946;86;20134;-72
2022/01/04 03:51:10;;;;;;;7.05;4.53;;;;;;;4.54;88.96;99396.41;1628652;85;20974;-72
2022/01/04 03:53:36;;;;;;;7.12;4.47;;;;;;;4.52;88.93;99395.58;1647655;86;21000;-72
2022/01/04 03:56:03;;;;;;;8.13;4.78;;;;;;;4.51;88.90;99395.16;1659477;85;21514;-71
2022/01/04 03:58:30;;;;;;;;;;;;;;;4.50;88.88;99395.18;1655767;86;20985;-71
2022/01/04 04:00:56;;;;;;;;;;;;;;;4.47;88.91;99390.94;1617319;86;20150;-71
2022/01/04 04:03:22;;;;;;;11.40;5.85;;;;;;;4.47;88.96;99389.66;1653676;86;20176;-71
2022/01/04 04:05:49;;;;;;;10.18;5.15;;;;;;;4.45;88.97;99390.11;1653431;85;21007;-71
2022/01/04 04:08:16;;;;;;;9.20;5.37;;;;;;;4.45;88.98;99381.15;1633368;86;20954;-71
2022/01/04 04:10:42;;;;;;;7.05;4.28;;;;;;;4.45;88.94;99384.14;1659135;86;20997;-71
2022/01/04 04:13:08;;;;;;;11.33;4.57;;;;;;;4.44;88.96;99377.33;1645526;85;21718;-73
2022/01/04 04:15:34;;;;;;;16.47;4.80;;;;;;;4.42;88.92;99374.78;1650393;85;21219;-72
2022/01/04 04:18:00;;;;;;;9.97;4.87;;;;;;;4.40;88.91;99376.95;1664160;85;21608;-72
2022/01/04 04:20:27;;;;;;;8.93;4.50;;;;;;;4.40;88.96;99375.67;1658241;86;21038;-71
2022/01/04 04:22:53;;;;;;;7.22;4.10;;;;;;;4.38;88.93;99373.55;1633733;86;20934;-71
2022/01/04 04:25:19;;;;;;;6.60;3.45;;;;;;;4.37;88.94;99371.86;1626638;86;21702;-72
2022/01/04 04:27:45;;;;;;;9.33;3.35;;;;;;;4.36;88.91;99361.21;1638020;86;20902;-72
2022/01/04 04:30:12;;;;;;;8.55;3.87;;;;;;;4.35;88.95;99358.23;1646619;86;20935;-72
2022/01/04 04:32:37;;;;;;;;;;;;;;;4.32;88.92;99355.28;1625962;86;20898;-72
2022/01/04 04:35:05;;;;;;;7.22;3.67;;;;;;;4.30;88.96;99350.17;1650595;86;20159;-71
2022/01/04 04:37:31;;;;;;;7.25;3.60;;;;;;;4.27;88.92;99342.53;1620163;86;20919;-71
2022/01/04 04:39:57;;;;;;;8.27;3.33;;;;;;;4.27;88.97;99348.08;1635172;86;20955;-71
2022/01/04 04:42:23;;;;;;;6.10;3.37;;;;;;;4.26;88.93;99346.39;1650464;86;21033;-71
2022/01/04 04:44:49;;;;;;;7.87;3.25;;;;;;;4.26;88.94;99343.83;1650652;86;20959;-71
2022/01/04 04:47:15;;;;;;;5.77;3.23;;;;;;;4.24;88.95;99340.01;1634448;86;21431;-71
2022/01/04 04:49:41;;;;;;;6.47;3.17;;;;;;;4.24;88.98;99343.84;1627783;86;20926;-72
2022/01/04 04:52:07;;;;;;;7.03;3.83;;;;;;;4.23;88.98;99341.30;1646703;86;20906;-72
2022/01/04 04:54:33;;;;;;;7.53;4.33;;;;;;;4.22;88.98;99337.89;1650526;86;20971;-71
2022/01/04 04:56:59;;;;;;;5.60;3.65;;;;;;;4.24;89.02;99331.48;1620526;86;20967;-71
2022/01/04 04:59:26;;;;;;;4.87;3.13;;;;;;;4.24;89.02;99326.36;1644516;86;21018;-71
2022/01/04 05:01:52;;;;;;;4.70;3.42;;;;;;;4.25;89.08;99317.39;1619452;86;20950;-71
2022/01/04 05:04:18;;;;;;;8.15;3.60;;;;;;;4.27;89.11;99320.78;1638973;86;20963;-71
2022/01/04 05:06:44;;;;;;;8.67;3.77;;;;;;;4.28;89.12;99322.48;1644124;86;20871;-72
2022/01/04 05:09:10;;;;;;;7.03;4.00;;;;;;;4.29;89.09;99323.33;1626882;86;20983;-72
2022/01/04 05:11:36;;;;;;;7.05;3.70;;;;;;;4.30;89.10;99317.34;1647743;86;20934;-71
2022/01/04 05:14:02;;;;;;;10.27;4.13;;;;;;;4.33;89.15;99309.63;1624511;86;20915;-71
2022/01/04 05:16:28;;;;;;;9.50;4.67;;;;;;;4.34;89.14;99310.05;1635898;86;20966;-72
2022/01/04 05:18:54;;;;;;;7.25;5.22;;;;;;;4.35;89.16;99305.34;1650448;86;20915;-72
2022/01/04 05:21:20;;;;;;;13.08;5.80;;;;;;;4.38;89.12;99300.63;1658998;85;20935;-73
2022/01/04 05:23:46;;;;;;;13.22;5.92;;;;;;;4.38;89.14;99296.35;1635897;86;20983;-72
2022/01/04 05:26:12;;;;;;;13.80;6.03;;;;;;;4.40;89.17;99290.78;1619056;86;20987;-72
2022/01/04 05:28:42;;;;;;;17.07;7.30;;;;;;;4.43;89.17;99292.02;1653182;86;21372;-72
2022/01/04 05:31:06;;;;;;;13.83;7.10;;;;;;;4.43;89.09;99285.63;1646480;85;20955;-72
2022/01/04 05:33:32;;;;;;;13.43;7.23;;;;;;;4.45;89.12;99284.33;1621259;86;20982;-72
2022/01/04 05:35:58;;;;;;;15.37;7.93;;;;;;;4.46;89.13;99277.06;1622940;85;20911;-72
2022/01/04 05:38:24;;;;;;;12.73;5.70;;;;;;;4.45;89.09;99271.09;1618820;86;21029;-72
2022/01/04 05:40:50;;;;;;;9.88;4.92;;;;;;;4.45;89.08;99271.53;1655657;85;20972;-72
2022/01/04 05:43:16;;;;;;;10.53;5.13;;;;;;;4.47;89.15;99274.48;1635053;86;20957;-72
2022/01/04 05:45:42;;;;;;;6.70;4.00;;;;;;;4.47;89.07;99263.40;1644858;86;21248;-72
2022/01/04 05:48:08;;;;;;;9.78;4.47;;;;;;;4.47;89.12;99257.00;1640120;86;20983;-72
2022/01/04 05:50:34;;;;;;;12.10;4.50;;;;;;;4.48;89.15;99258.27;1639905;86;20967;-72
2022/01/04 05:53:01;;;;;;;8.88;4.33;;;;;;;4.48;89.13;99264.66;1641973;86;20934;-72
2022/01/04 05:55:27;;;;;;;11.57;4.53;;;;;;;4.48;89.13;99262.10;1635664;86;20983;-72
2022/01/04 05:57:53;;;;;;;11.73;4.65;;;;;;;4.51;89.18;99265.90;1645355;85;21013;-72
2022/01/04 06:00:19;;;;;;;12.67;6.37;;;;;;;4.53;89.20;99266.73;1646304;86;20852;-72
2022/01/04 06:02:45;;;;;;;14.23;8.48;;;;;;;4.56;89.20;99263.28;1641469;86;21017;-72
2022/01/04 06:05:11;;;;;;;14.57;8.47;;;;;;;4.55;89.16;99258.59;1642803;86;20883;-72
2022/01/04 06:07:37;;;;;;;11.10;7.70;;;;;;;4.57;89.19;99254.30;1642940;86;21360;-72
2022/01/04 06:10:06;;;;;;;13.08;7.25;;;;;;;4.57;89.17;99247.91;1620518;86;20974;-72
2022/01/04 06:15:03;;;;;;;10.60;6.50;;;;;;;4.52;89.16;99223.23;1662844;86;20963;-72
2022/01/04 06:17:34;;;;;;;11.93;5.62;;;;;;;4.52;89.16;99223.23;1636657;86;20939;-71
2022/01/04 06:20:01;;;;;;;8.25;4.62;;;;;;;4.61;89.18;99236.75;1614964;86;20987;-71
2022/01/04 06:22:28;;;;;;;7.78;4.90;;;;;;;4.61;89.15;99235.91;1612924;88;20974;-71
2022/01/04 06:24:55;;;;;;;9.15;5.60;;;;;;;4.62;89.19;99235.04;1603049;88;20982;-71
2022/01/04 06:27:21;;;;;;;11.65;5.30;;;;;;;4.63;89.21;99236.73;1622018;87;26517;-71
2022/01/04 06:29:48;;;;;;;9.38;4.62;;;;;;;4.62;89.18;99234.61;1604683;87;27494;-72
2022/01/04 06:32:16;;;;;;;8.53;4.78;;;;;;;4.62;89.18;99229.48;1613066;86;20900;-72
2022/01/04 06:34:44;;;;;;;10.32;5.08;;;;;;;4.62;89.21;99227.36;1628387;87;20967;-71
2022/01/04 06:37:12;;;;;;;8.70;5.30;;;;;;;4.63;89.24;99227.34;1624867;86;20907;-71
2022/01/04 06:39:39;;;;;;;8.25;4.25;;;;;;;4.66;89.24;99230.29;1618371;87;20907;-71
2022/01/04 06:42:05;;;;;;;9.03;4.42;;;;;;;4.67;89.27;99223.45;1616129;87;20953;-72
2022/01/04 06:44:32;;;;;;;6.65;3.83;;;;;;;4.71;89.29;99225.07;1622956;87;23581;-72
2022/01/04 06:46:58;;;;;;;7.25;4.42;;;;;;;4.71;89.32;99225.91;1616182;87;21076;-72
2022/01/04 06:49:24;;;;;;;84.07;26.37;;;;;;;4.76;89.39;99222.01;1608014;87;20932;-72
2022/01/04 06:51:51;;;;;;;7.23;4.30;;;;;;;4.79;89.35;99221.97;1636924;86;22073;-72
2022/01/04 06:54:20;;;;;;;8.30;5.33;;;;;;;4.82;89.37;99214.23;1618921;87;21096;-71
2022/01/04 06:56:47;;;;;;;10.35;5.40;;;;;;;4.83;89.36;99211.66;1612693;86;20935;-71
2022/01/04 06:59:14;;;;;;;7.75;5.28;;;;;;;4.85;89.34;99206.07;1626368;87;21451;-71
2022/01/04 07:01:40;;;;;;;11.45;5.30;;;;;;;4.88;89.37;99198.78;1626352;86;20955;-71
2022/01/04 07:04:07;;;;;;;77.27;59.88;;;;;;;4.91;89.38;99198.73;1615671;87;20899;-71
2022/01/04 07:06:34;;;;;;;86.97;47.95;;;;;;;4.92;89.37;99187.18;1628131;87;21383;-72
2022/01/04 07:09:00;;;;;;;;;;;;;;;4.97;89.39;99186.67;1630265;85;285023;-71
2022/01/04 07:11:26;;;;;;;7.65;4.20;;;;;;;4.99;89.41;99194.33;1607403;85;20203;-71
2022/01/04 07:13:53;;;;;;;6.03;3.60;;;;;;;4.99;89.36;99187.49;1612031;87;21596;-71
2022/01/04 07:16:20;;;;;;;8.40;3.80;;;;;;;5.02;89.39;99179.34;1614125;87;20994;-71
2022/01/04 07:18:48;;;;;;;5.72;3.47;;;;;;;5.05;89.40;99171.61;1613199;87;28052;-72
2022/01/04 07:21:16;;;;;;;5.55;3.62;;;;;;;5.06;89.40;99163.05;1625113;85;20951;-72
2022/01/04 07:23:44;;;;;;;10.08;3.87;;;;;;;5.09;89.43;99164.28;1654278;85;20978;-72
2022/01/04 07:26:14;;;;;;;9.60;4.65;;;;;;;5.10;89.40;99164.70;1638665;86;20965;-71
2022/01/04 07:28:42;;;;;;;7.25;3.90;;;;;;;5.10;89.35;99165.55;1648764;84;20982;-71
2022/01/04 07:31:11;;;;;;;279.43;100.20;;;;;;;5.13;89.41;99150.55;1654009;85;21022;-72
2022/01/04 07:33:38;;;;;;;6.55;4.28;;;;;;;5.15;89.41;99148.37;1651284;85;21632;-72
2022/01/04 07:36:10;;;;;;;42.95;36.15;;;;;;;5.16;89.39;99144.09;1651643;85;21093;-72
2022/01/04 07:38:36;;;;;;;7.92;4.55;;;;;;;5.17;89.41;99135.53;1651799;85;20914;-71
2022/01/04 07:41:03;;;;;;;9.53;4.65;;;;;;;5.19;89.42;99129.52;1660620;85;21456;-71
2022/01/04 07:43:31;;;;;;;9.53;4.75;;;;;;;5.20;89.36;99129.89;1646744;85;20867;-71
2022/01/04 07:45:57;;;;;;;6.37;4.45;;;;;;;5.21;89.39;99131.58;1648883;85;21355;-71
2022/01/04 07:48:23;;;;;;;10.20;5.10;;;;;;;5.22;89.40;99129.42;1653804;85;20914;-72
2022/01/04 07:50:51;;;;;;;11.28;5.28;;;;;;;5.23;89.40;99131.11;1653398;85;21276;-71
2022/01/04 07:53:17;;;;;;;7.55;4.95;;;;;;;5.24;89.40;99125.12;1650778;85;21497;-71
2022/01/04 07:55:43;;;;;;;9.10;5.67;;;;;;;5.27;89.44;99127.62;1650524;85;20885;-72
2022/01/04 07:58:09;;;;;;;7.37;6.62;;;;;;;5.28;89.46;99122.91;1634817;86;21128;-72
2022/01/04 08:00:35;;;;;;;8.10;5.03;;;;;;;5.32;89.48;99121.12;1645127;85;21537;-73
2022/01/04 08:03:03;;;;;;;9.08;4.65;;;;;;;5.36;89.49;99121.92;1665283;85;21567;-72
2022/01/04 08:05:29;;;;;;;12.55;4.92;;;;;;;5.36;89.48;99118.92;1655519;85;21142;-73
2022/01/04 08:07:55;;;;;;;8.58;4.78;;;;;;;5.39;89.49;99116.30;1656474;85;21614;-74
2022/01/04 08:10:21;;;;;;;8.93;4.77;;;;;;;5.41;89.48;99123.52;1660073;84;20894;-71
2022/01/04 08:12:48;;;;;;;7.55;4.30;;;;;;;5.42;89.45;99121.37;1651130;85;21450;-72
2022/01/04 08:15:14;;;;;;;8.93;4.17;;;;;;;5.44;89.45;99122.63;1664509;85;25171;-72
2022/01/04 08:17:40;;;;;;;6.67;4.17;;;;;;;5.44;89.46;99120.91;1672665;85;21482;-73
2022/01/04 08:20:07;;;;;;;6.75;4.10;;;;;;;5.46;89.49;99119.16;1650036;84;20913;-72
2022/01/04 08:22:34;;;;;;;8.20;4.37;;;;;;;5.48;89.53;99116.56;1664522;85;20986;-71
2022/01/04 08:25:07;;;;;;;8.50;4.90;;;;;;;5.52;89.56;99115.63;1652987;85;21103;-72
2022/01/04 08:27:34;;;;;;;6.90;4.65;;;;;;;5.56;89.59;99119.38;1589650;89;20914;-72
2022/01/04 08:29:59;;;;;;;;;;;;;;;5.59;89.59;99106.50;1600233;89;21541;-74
2022/01/04 08:32:26;;;;;;;6.72;5.00;;;;;;;5.63;89.62;99102.16;1591426;89;20823;-72
2022/01/04 08:34:52;;;;;;;9.20;6.03;;;;;;;5.65;89.63;99102.53;1598204;89;21559;-73
2022/01/04 08:37:19;;;;;;;8.03;5.87;;;;;;;5.69;89.58;99094.34;1593070;89;21561;-71
2022/01/04 08:39:46;;;;;;;7.90;5.47;;;;;;;5.72;89.62;99085.75;1604769;89;21490;-73
2022/01/04 08:42:12;;;;;;;8.90;6.08;;;;;;;5.74;89.62;99092.50;1591664;88;20974;-73
2022/01/04 08:44:39;;;;;;;10.90;7.05;;;;;;;5.77;89.60;99094.16;1586170;89;21580;-74
2022/01/04 08:47:10;;;;;;;9.83;5.97;;;;;;;5.78;89.57;99086.42;1586435;89;20961;-73
2022/01/04 08:49:38;;;;;;;9.95;6.03;;;;;;;5.80;89.58;99089.80;1587199;89;21509;-73
2022/01/04 08:52:06;;;;;;;7.97;5.40;;;;;;;5.82;89.59;99086.77;1589897;89;20898;-73
2022/01/04 08:54:33;;;;;;;6.55;5.03;;;;;;;5.83;89.58;99073.07;1608497;89;20926;-73
2022/01/04 08:57:00;;;;;;;5.47;4.78;;;;;;;5.85;89.59;99071.31;1583420;89;21815;-73
2022/01/04 08:59:27;;;;;;;9.28;5.20;;;;;;;5.87;89.58;99065.71;1589254;89;21625;-73
2022/01/04 09:01:55;;;;;;;7.35;5.37;;;;;;;5.88;89.58;99067.41;1660019;85;21869;-73
2022/01/04 09:04:22;;;;;;;5.60;4.67;;;;;;;5.91;89.57;99070.38;1657126;85;21387;-74
2022/01/04 09:06:49;;;;;;;6.87;4.62;;;;;;;5.92;89.60;99064.36;1615209;87;21434;-76
2022/01/04 09:09:16;;;;;;;7.85;4.62;;;;;;;5.94;89.62;99061.33;1577223;89;21546;-73
2022/01/04 09:11:42;;;;;;;8.08;5.12;;;;;;;5.96;89.63;99055.72;1590234;89;20961;-73
2022/01/04 09:19:19;;;;;;;7.05;5.47;;;;;;;6.03;89.65;99046.17;1608219;87;21663;-76
2022/01/04 09:21:45;;;;;;;12.30;6.10;;;;;;;6.05;89.62;99050.39;1611772;87;21147;-72
2022/01/04 09:24:12;;;;;;;9.95;6.03;;;;;;;6.06;89.64;99043.09;1609391;87;21005;-73
2022/01/04 09:26:38;;;;;;;7.42;5.95;;;;;;;6.08;89.62;99045.19;1604592;87;21638;-73
2022/01/04 09:29:04;;;;;;;8.17;5.90;;;;;;;6.10;89.45;99045.99;1607611;87;20997;-72
2022/01/04 09:31:32;;;;;;;8.43;5.55;;;;;;;6.12;89.65;99051.09;1605499;87;21013;-72
2022/01/04 09:34:00;;;;;;;11.20;5.42;;;;;;;6.16;89.70;99047.58;1604589;87;21132;-72
2022/01/04 09:36:30;;;;;;;9.88;6.33;;;;;;;6.18;89.69;99036.39;1606706;87;21040;-73
2022/01/04 09:38:57;;;;;;;7.67;5.75;;;;;;;6.22;89.70;99033.31;1613251;87;21128;-72
2022/01/04 09:41:23;;;;;;;8.48;6.45;;;;;;;6.24;89.73;99028.52;1608354;87;21135;-73
2022/01/04 09:43:52;;;;;;;8.28;6.95;;;;;;;6.28;89.72;99021.59;1607108;87;21092;-73
2022/01/04 09:46:18;;;;;;;9.73;7.37;;;;;;;6.31;89.75;99022.80;1608388;87;21505;-73
2022/01/04 09:48:44;;;;;;;11.70;7.20;;;;;;;6.35;89.76;99014.14;1609357;87;21518;-74
2022/01/04 09:51:13;;;;;;;11.12;7.12;;;;;;;6.37;89.75;99003.40;1598700;87;21104;-73
2022/01/04 09:53:39;;;;;;;13.03;7.45;;;;;;;6.40;89.74;99002.04;1599684;88;21092;-73
2022/01/04 09:56:06;;;;;;;8.83;7.28;;;;;;;6.44;89.73;99002.81;1609586;87;21576;-73
2022/01/04 09:58:33;;;;;;;10.75;6.40;;;;;;;6.45;89.71;98988.65;1611784;87;21603;-73
2022/01/04 10:01:00;;;;;;;10.68;7.58;;;;;;;6.47;89.71;98992.02;1609844;87;21049;-72
2022/01/04 10:03:29;;;;;;;9.00;6.35;;;;;;;6.51;89.71;98992.78;1605450;87;20942;-73
2022/01/04 10:06:15;;;;;;;10.03;6.65;;;;;;;6.54;89.74;98993.99;1610938;87;21076;-73
2022/01/04 10:08:57;;;;;;;13.45;7.05;;;;;;;6.57;89.77;98988.78;1591675;89;21082;-72
2022/01/04 10:11:42;;;;;;;10.90;7.47;;;;;;;6.60;89.78;98990.83;1608711;87;21187;-73
2022/01/04 10:14:29;;;;;;;11.08;7.42;;;;;;;6.63;89.78;98976.62;1607590;87;21124;-73
2022/01/04 10:16:59;;;;;;;9.50;7.80;;;;;;;6.68;89.81;98972.65;1610959;87;21040;-73
2022/01/04 10:19:46;;;;;;;12.65;7.65;;;;;;;6.71;89.80;98961.02;1608301;87;21089;-73
2022/01/04 10:22:23;;;;;;;11.28;7.47;;;;;;;6.75;89.81;98954.91;1615060;86;21097;-73
2022/01/04 10:25:03;;;;;;;11.40;7.92;;;;;;;6.77;89.78;98953.55;1650616;85;20868;-74
2022/01/04 10:27:42;;;;;;;13.68;7.37;;;;;;;6.80;89.82;98952.19;1656121;85;21005;-72
2022/01/04 10:30:21;;;;;;;10.98;7.60;;;;;;;6.82;89.80;98951.26;1654758;85;20899;-73
2022/01/04 10:32:58;;;;;;;10.23;8.43;;;;;;;6.85;89.79;98946.48;1650108;85;21106;-73
2022/01/04 10:35:50;;;;;;;9.68;7.60;;;;;;;6.87;89.78;98939.13;1628751;86;21603;-73
2022/01/04 10:38:23;;;;;;;8.35;7.05;;;;;;;6.90;89.78;98936.91;1656269;85;20955;-73
2022/01/04 10:41:23;;;;;;;11.50;7.03;;;;;;;6.91;89.79;98939.44;1652943;85;20935;-74
2022/01/04 10:43:54;;;;;;;11.68;8.05;;;;;;;6.93;89.79;98935.11;1654622;85;20895;-76
2022/01/04 10:46:33;;;;;;;11.63;7.95;;;;;;;6.95;89.76;98928.20;1633818;86;20973;-73
2022/01/04 10:49:01;;;;;;;13.05;7.45;;;;;;;6.94;89.73;98912.82;1654554;85;21494;-73
2022/01/04 10:51:30;;;;;;;10.55;8.18;;;;;;;6.95;89.76;98904.23;1656515;85;20902;-73
2022/01/04 10:54:01;;;;;;;9.58;8.20;;;;;;;6.96;89.75;98903.34;1632896;86;20997;-75
2022/01/04 10:56:34;;;;;;;11.65;8.50;;;;;;;6.96;89.75;98900.33;1633508;86;20918;-74
2022/01/04 10:59:07;;;;;;;16.05;9.55;;;;;;;6.95;89.76;98908.92;1656588;85;20966;-73
2022/01/04 11:01:47;;;;;;;11.83;8.50;;;;;;;6.98;89.79;98901.57;1656632;85;20935;-73
2022/01/04 11:04:17;;;;;;;15.15;9.50;;;;;;;7.01;89.83;98898.07;1631753;86;20929;-72
2022/01/04 11:06:44;;;;;;;14.53;9.80;;;;;;;7.01;89.79;98889.92;1655428;85;20942;-73
2022/01/04 11:09:11;;;;;;;14.15;10.08;;;;;;;7.02;89.79;98878.75;1632480;86;21470;-73
2022/01/04 11:11:37;;;;;;;;;;;;;;;7.02;89.83;98872.33;1667928;85;20888;-73
2022/01/04 11:14:04;;;;;;;13.93;7.65;;;;;;;7.03;89.83;98867.59;1667577;85;20151;-74
2022/01/04 11:16:31;;;;;;;10.28;7.30;;;;;;;7.04;89.81;98860.72;1658210;85;20906;-74
2022/01/04 11:19:01;;;;;;;11.28;8.18;;;;;;;7.02;89.80;98853.06;1655667;85;21060;-75
2022/01/04 11:21:32;;;;;;;10.90;6.67;;;;;;;7.01;89.77;98840.25;1635329;86;20949;-75
2022/01/04 11:24:01;;;;;;;10.35;7.35;;;;;;;7.00;89.81;98831.70;1656876;85;20899;-75
2022/01/04 11:26:28;;;;;;;10.35;7.75;;;;;;;7.00;89.81;98823.16;1616589;86;20985;-74
2022/01/04 11:28:56;;;;;;;12.93;8.10;;;;;;;7.00;89.79;98827.01;1649104;85;20911;-74
2022/01/04 11:31:31;;;;;;;11.60;7.90;;;;;;;6.97;89.85;98813.36;1638228;86;20981;-72
2022/01/04 11:34:21;;;;;;;10.75;7.95;;;;;;;6.99;89.84;98805.61;1662961;85;20863;-74
2022/01/04 11:36:51;;;;;;;9.73;7.55;;;;;;;6.98;89.84;98792.37;1637556;85;21593;-74
2022/01/04 11:39:36;;;;;;;12.03;7.85;;;;;;;6.97;89.85;98790.23;1652345;85;20967;-74
2022/01/04 11:42:09;;;;;;;10.72;7.50;;;;;;;6.98;89.88;98780.36;1658728;85;21522;-74
2022/01/04 11:44:45;;;;;;;11.45;7.42;;;;;;;6.99;89.90;98769.64;1636895;86;21084;-73
2022/01/04 11:47:26;;;;;;;13.20;8.98;;;;;;;7.01;89.89;98765.29;1647962;85;21085;-73
2022/01/04 11:50:25;;;;;;;15.40;8.40;;;;;;;7.02;89.89;98760.55;1659520;85;21437;-73
2022/01/04 11:52:52;;;;;;;9.75;7.45;;;;;;;7.04;89.89;98752.80;1638669;86;21127;-72
2022/01/04 11:55:33;;;;;;;12.18;7.33;;;;;;;7.05;89.86;98748.05;1628977;86;21060;-72